Time;durP1;ratioP1;P1;durP2;ratioP2;P2;SDS_P1;SDS_P2;PMS_P1;PMS_P2;Temp;Humidity;BMP_temperature;BMP_pressure;BME280_temperature;BME280_humidity;BME280_pressure;Samples;Min_cycle;Max_cycle;Signal;HPM_P1;HPM_P2
2022/06/11 00:02:06;;;;;;;39.78;22.32;;;;;;;14.50;77.17;100013.16;1747805;82;21824;-72
2022/06/11 00:04:39;;;;;;;34.10;21.82;;;;;;;14.45;77.72;100006.80;1747560;82;21060;-71
2022/06/11 00:07:10;;;;;;;44.18;24.72;;;;;;;14.43;78.23;100005.54;1747732;82;21037;-72
2022/06/11 00:09:39;;;;;;;39.23;23.35;;;;;;;14.40;78.76;100011.02;1747379;82;22216;-72
2022/06/11 00:12:06;;;;;;;40.33;24.20;;;;;;;14.34;78.92;100013.99;1735025;82;21128;-72
2022/06/11 00:14:35;;;;;;;38.10;23.18;;;;;;;14.27;78.93;100009.97;1718138;83;21146;-72
2022/06/11 00:17:04;;;;;;;38.60;22.58;;;;;;;14.24;79.56;100013.64;1717531;83;21530;-73
2022/06/11 00:19:33;;;;;;;38.83;23.83;;;;;;;14.23;79.61;100004.45;1717769;83;21116;-72
2022/06/11 00:22:00;;;;;;;35.98;23.22;;;;;;;14.21;79.33;100001.02;1717624;83;21093;-71
2022/06/11 00:24:27;;;;;;;37.78;23.12;;;;;;;14.20;79.67;99994.03;1717604;83;21065;-72
2022/06/11 00:26:56;;;;;;;35.78;22.00;;;;;;;14.18;79.83;99994.10;1734648;82;21815;-71
2022/06/11 00:29:25;;;;;;;36.05;23.42;;;;;;;14.17;80.10;100002.12;1747551;82;21044;-72
2022/06/11 00:31:52;;;;;;;32.40;21.62;;;;;;;14.15;79.87;99996.92;1747893;82;21053;-71
2022/06/11 00:34:18;;;;;;;31.62;21.48;;;;;;;14.14;79.92;99998.32;1745272;81;21022;-72
2022/06/11 00:36:47;;;;;;;33.73;22.00;;;;;;;14.14;79.97;100000.97;1745003;82;21605;-71
2022/06/11 00:39:16;;;;;;;41.18;23.65;;;;;;;14.13;79.95;99997.95;1744409;82;21091;-72
2022/06/11 00:41:46;;;;;;;37.38;22.55;;;;;;;14.12;80.28;100009.46;1744720;82;21159;-71
2022/06/11 00:44:14;;;;;;;38.42;23.02;;;;;;;14.10;80.47;100004.71;1744872;82;29153;-71
2022/06/11 00:46:58;;;;;;;35.20;21.62;;;;;;;14.06;80.34;100006.21;1744973;82;21085;-73
2022/06/11 00:49:45;;;;;;;40.28;23.62;;;;;;;14.03;80.62;100005.06;1744826;82;21034;-72
2022/06/11 00:52:38;;;;;;;36.50;23.57;;;;;;;14.02;80.83;100004.66;1728570;82;21090;-72
2022/06/11 00:55:24;;;;;;;33.45;22.02;;;;;;;13.99;81.42;100011.92;1723691;82;21053;-72
2022/06/11 00:58:09;;;;;;;34.80;23.45;;;;;;;13.94;81.75;100010.84;1708551;82;21371;-71
2022/06/11 01:00:41;;;;;;;43.95;23.57;;;;;;;13.92;81.91;100018.01;1744187;82;21069;-71
2022/06/11 01:03:11;;;;;;;37.15;23.35;;;;;;;13.91;82.05;100020.25;1744908;82;21580;-70
2022/06/11 01:05:41;;;;;;;35.45;23.40;;;;;;;13.89;82.24;100014.66;1744993;82;21112;-72
2022/06/11 01:08:36;;;;;;;41.45;24.70;;;;;;;13.88;82.50;100019.09;1744846;82;21521;-71
2022/06/11 01:11:30;;;;;;;46.25;24.63;;;;;;;13.85;82.92;100012.66;1727495;82;21019;-72
2022/06/11 01:14:48;;;;;;;38.65;23.42;;;;;;;13.83;83.09;100021.98;1715201;83;21045;-72
2022/06/11 01:17:45;;;;;;;42.35;23.22;;;;;;;13.80;83.02;100018.19;1715121;83;21061;-71
2022/06/11 01:20:39;;;;;;;36.20;22.32;;;;;;;13.78;83.10;100020.50;1715330;83;21116;-73
2022/06/11 01:23:23;;;;;;;39.03;23.12;;;;;;;13.76;83.17;100025.05;1679156;83;21080;-72
2022/06/11 01:26:24;;;;;;;39.20;23.80;;;;;;;13.73;82.82;100033.97;1714690;83;21503;-73
2022/06/11 01:29:03;;;;;;;38.23;23.57;;;;;;;13.70;83.03;100038.58;1715237;83;21616;-73
2022/06/11 01:31:41;;;;;;;37.35;23.62;;;;;;;13.68;83.43;100040.45;1663723;81;21561;-71
2022/06/11 01:34:55;;;;;;;40.15;24.70;;;;;;;13.64;83.79;100039.73;1715105;82;21104;-71
2022/06/11 01:37:39;;;;;;;36.53;24.02;;;;;;;13.61;84.00;100044.72;1714941;83;21049;-72
2022/06/11 01:40:44;;;;;;;39.80;24.92;;;;;;;13.61;84.14;100040.75;1696117;83;21124;-72
2022/06/11 01:43:17;;;;;;;39.60;24.95;;;;;;;13.63;84.39;100048.14;1715207;83;21085;-72
2022/06/11 01:45:47;;;;;;;37.35;24.67;;;;;;;13.61;84.34;100044.72;1715534;83;21542;-72
2022/06/11 01:48:18;;;;;;;39.73;25.15;;;;;;;13.63;84.72;100048.62;1715189;83;21580;-71
2022/06/11 01:50:56;;;;;;;37.55;23.57;;;;;;;13.64;84.90;100043.27;1715289;83;21052;-70
2022/06/11 01:53:42;;;;;;;32.10;21.90;;;;;;;13.63;84.75;100048.14;1655749;83;21108;-71
2022/06/11 01:56:36;;;;;;;36.65;24.47;;;;;;;13.64;84.61;100046.35;1715007;83;21584;-71
2022/06/11 01:59:31;;;;;;;36.80;23.45;;;;;;;13.64;84.74;100051.64;1715214;83;21038;-71
2022/06/11 02:02:13;;;;;;;39.10;23.35;;;;;;;13.61;84.99;100051.33;1715181;83;22304;-72
2022/06/11 02:05:06;;;;;;;39.03;23.60;;;;;;;13.62;85.12;100051.73;1703452;83;21056;-71
2022/06/11 02:08:00;;;;;;;38.38;23.77;;;;;;;13.62;84.91;100053.06;1715245;83;21021;-72
2022/06/11 02:10:38;;;;;;;39.98;23.50;;;;;;;13.62;84.85;100050.89;1714904;83;21435;-70
2022/06/11 02:13:27;;;;;;;42.35;24.72;;;;;;;13.60;84.86;100052.28;1740269;82;21030;-71
2022/06/11 02:16:04;;;;;;;38.53;24.92;;;;;;;13.60;84.97;100054.93;1744904;82;21645;-72
2022/06/11 02:18:30;;;;;;;39.63;23.62;;;;;;;13.61;85.29;100051.33;1734819;82;21511;-71
2022/06/11 02:21:09;;;;;;;33.65;23.05;;;;;;;13.62;85.44;100053.54;1723656;82;21080;-71
2022/06/11 02:23:57;;;;;;;37.73;23.32;;;;;;;13.62;85.34;100049.09;1745091;82;21041;-71
2022/06/11 02:26:32;;;;;;;37.90;23.22;;;;;;;13.66;85.31;100058.19;1744873;82;21048;-71
2022/06/11 02:28:59;;;;;;;37.23;23.52;;;;;;;13.68;85.27;100061.14;1744103;82;21589;-70
2022/06/11 02:31:30;;;;;;;36.88;22.35;;;;;;;13.70;85.41;100065.89;1744912;82;21557;-71
2022/06/11 02:33:56;;;;;;;37.53;23.40;;;;;;;13.74;85.43;100056.88;1746126;81;21109;-73
2022/06/11 02:36:30;;;;;;;34.55;23.22;;;;;;;13.80;85.20;100064.95;1747593;82;22239;-71
2022/06/11 02:38:59;;;;;;;38.83;24.90;;;;;;;13.85;85.06;100062.47;1747801;82;21070;-72
2022/06/11 02:41:30;;;;;;;42.93;24.87;;;;;;;13.92;84.86;100065.66;1747430;82;21122;-71
2022/06/11 02:43:56;;;;;;;39.83;23.35;;;;;;;13.98;84.77;100060.02;1747652;82;21601;-71
2022/06/11 02:46:41;;;;;;;37.08;22.93;;;;;;;14.09;84.46;100069.22;1747293;82;21037;-71
2022/06/11 02:49:12;;;;;;;34.73;23.20;;;;;;;14.18;84.13;100071.37;1747487;82;21077;-71
2022/06/11 02:51:41;;;;;;;31.77;21.65;;;;;;;14.26;83.71;100066.52;1747386;82;21045;-72
2022/06/11 02:54:07;;;;;;;32.58;21.65;;;;;;;14.35;83.51;100066.02;1747580;82;21897;-72
2022/06/11 02:56:34;;;;;;;38.48;23.57;;;;;;;14.46;83.21;100064.13;1747542;82;21101;-71
2022/06/11 02:59:01;;;;;;;36.25;22.87;;;;;;;14.58;82.89;100066.61;1747658;82;21064;-72
2022/06/11 03:01:28;;;;;;;34.27;22.45;;;;;;;14.67;82.72;100061.66;1747752;82;21041;-72
2022/06/11 03:03:55;;;;;;;33.23;22.48;;;;;;;14.81;82.83;100074.63;1747848;82;21069;-70
2022/06/11 03:06:23;;;;;;;30.30;21.30;;;;;;;14.92;82.35;100062.95;1747867;82;21757;-70
2022/06/11 03:08:50;;;;;;;33.65;21.60;;;;;;;15.08;81.91;100069.58;1747391;82;21134;-70
2022/06/11 03:11:16;;;;;;;39.20;23.00;;;;;;;15.21;81.44;100077.23;1747697;82;21017;-71
2022/06/11 03:13:43;;;;;;;33.00;21.55;;;;;;;15.36;80.58;100070.17;1747523;82;22361;-71
2022/06/11 03:16:11;;;;;;;34.08;21.70;;;;;;;15.55;79.98;100075.73;1747945;82;21116;-72
2022/06/11 03:18:38;;;;;;;29.05;20.70;;;;;;;15.71;79.42;100076.57;1747358;82;21238;-71
2022/06/11 03:21:05;;;;;;;32.80;21.93;;;;;;;15.86;78.55;100077.48;1747372;82;21056;-70
2022/06/11 03:23:33;;;;;;;36.05;20.68;;;;;;;16.06;77.33;100075.81;1747401;82;20982;-69
2022/06/11 03:26:00;;;;;;;30.77;21.65;;;;;;;16.24;76.47;100069.85;1747598;82;21076;-70
2022/06/11 03:28:27;;;;;;;30.77;20.65;;;;;;;16.45;75.27;100068.99;1747510;81;21744;-70
2022/06/11 03:30:56;;;;;;;41.30;21.10;;;;;;;16.66;74.46;100068.59;1747457;82;21669;-70
2022/06/11 03:33:24;;;;;;;36.13;21.50;;;;;;;16.91;73.64;100072.76;1747275;81;21490;-73
2022/06/11 03:35:52;;;;;;;29.72;19.40;;;;;;;17.14;72.77;100067.28;1744848;82;21631;-71
2022/06/11 03:38:18;;;;;;;34.43;18.73;;;;;;;17.39;72.04;100071.84;1744772;82;21029;-71
2022/06/11 03:40:44;;;;;;;30.25;20.10;;;;;;;17.61;70.74;100075.72;1744717;82;21105;-71
2022/06/11 03:43:11;;;;;;;28.77;19.30;;;;;;;17.82;69.90;100072.96;1745019;82;21089;-71
2022/06/11 03:45:38;;;;;;;28.87;18.42;;;;;;;18.06;69.16;100070.93;1744709;82;21042;-72
2022/06/11 03:48:06;;;;;;;31.75;19.05;;;;;;;18.31;68.30;100073.20;1744689;82;21086;-71
2022/06/11 03:50:36;;;;;;;43.13;18.82;;;;;;;18.55;67.33;100076.81;1744810;82;21065;-70
2022/06/11 03:53:05;;;;;;;35.75;19.42;;;;;;;19.07;65.89;100074.42;1744802;82;21041;-72
2022/06/11 03:55:32;;;;;;;32.58;19.65;;;;;;;19.07;65.89;100074.42;1744686;82;21850;-71
2022/06/11 03:57:59;;;;;;;32.40;18.90;;;;;;;19.35;64.94;100076.38;1744674;82;21029;-72
2022/06/11 04:01:29;;;;;;;31.55;17.98;;;;;;;19.65;64.31;100073.71;1745087;82;21104;-72
2022/06/11 04:03:05;;;;;;;29.83;18.07;;;;;;;19.91;63.44;100073.92;1729674;82;21585;-70
2022/06/11 04:05:34;;;;;;;30.68;18.57;;;;;;;20.24;62.66;100073.60;1744834;82;21026;-71
2022/06/11 04:08:01;;;;;;;25.68;17.85;;;;;;;20.55;61.77;100072.54;1744742;82;21128;-72
2022/06/11 04:10:28;;;;;;;30.90;18.60;;;;;;;20.86;60.74;100068.77;1744702;82;21026;-71
2022/06/11 04:12:55;;;;;;;33.18;18.15;;;;;;;21.16;59.73;100076.11;1721661;82;21609;-72
2022/06/11 04:15:23;;;;;;;26.50;17.20;;;;;;;21.42;58.77;100076.69;1715006;83;21053;-71
2022/06/11 04:17:49;;;;;;;27.87;17.98;;;;;;;21.71;58.39;100079.58;1715004;83;21109;-71
2022/06/11 04:20:16;;;;;;;26.48;16.75;;;;;;;21.98;57.20;100076.39;1714822;83;21791;-71
2022/06/11 04:22:43;;;;;;;23.95;16.80;;;;;;;22.32;55.75;100070.83;1715070;83;21069;-71
2022/06/11 04:25:14;;;;;;;26.48;16.20;;;;;;;22.61;55.00;100067.41;1714837;83;21073;-71
2022/06/11 04:27:40;;;;;;;25.37;16.00;;;;;;;22.92;53.30;100070.91;1715233;83;21034;-71
2022/06/11 04:30:11;;;;;;;26.33;16.10;;;;;;;23.25;52.33;100070.21;1715278;83;21068;-72
2022/06/11 04:32:39;;;;;;;24.77;15.80;;;;;;;23.56;51.17;100070.95;1695029;83;21143;-71
2022/06/11 04:35:07;;;;;;;26.80;15.83;;;;;;;23.87;50.02;100069.45;1726265;82;21069;-72
2022/06/11 04:37:33;;;;;;;23.47;11.63;;;;;;;24.18;49.25;100070.58;1733009;82;21375;-72
2022/06/11 04:40:01;;;;;;;20.32;9.68;;;;;;;24.49;46.67;100073.41;1733003;82;21548;-72
2022/06/11 04:42:28;;;;;;;18.17;10.08;;;;;;;24.80;44.07;100067.77;1733047;82;21026;-72
2022/06/11 04:44:54;;;;;;;23.83;14.30;;;;;;;25.16;43.88;100070.50;1733267;82;21610;-72
2022/06/11 04:47:24;;;;;;;25.90;14.23;;;;;;;25.45;44.35;100072.17;1732955;82;21638;-71
2022/06/11 04:49:52;;;;;;;27.80;14.47;;;;;;;25.74;44.36;100069.20;1733399;82;21248;-71
2022/06/11 04:52:21;;;;;;;25.55;13.88;;;;;;;26.02;43.85;100069.98;1732977;81;21109;-72
2022/06/11 04:54:48;;;;;;;19.90;8.85;;;;;;;26.25;43.23;100066.25;1732688;82;21085;-73
2022/06/11 04:57:14;;;;;;;20.17;8.38;;;;;;;26.50;39.31;100067.70;1733033;82;22202;-71
2022/06/11 04:59:41;;;;;;;15.55;7.55;;;;;;;26.68;39.03;100070.36;1733659;82;21003;-72
2022/06/11 05:02:08;;;;;;;16.42;7.72;;;;;;;26.86;37.15;100068.40;1733119;82;21061;-71
2022/06/11 05:04:35;;;;;;;15.90;7.83;;;;;;;27.12;36.37;100064.75;1732959;82;21015;-70
2022/06/11 05:07:02;;;;;;;21.35;8.25;;;;;;;27.34;35.47;100064.16;1733123;82;21144;-73
2022/06/11 05:09:30;;;;;;;11.75;7.40;;;;;;;27.50;35.33;100069.25;1732998;82;21130;-72
2022/06/11 05:11:57;;;;;;;16.50;8.00;;;;;;;27.60;34.67;100067.21;1744174;81;21041;-73
2022/06/11 05:14:24;;;;;;;14.93;7.53;;;;;;;27.74;34.58;100065.17;1763521;81;21132;-72
2022/06/11 05:16:51;;;;;;;18.00;8.00;;;;;;;27.96;34.12;100080.44;1763507;81;21026;-72
2022/06/11 05:19:19;;;;;;;16.20;7.95;;;;;;;28.18;33.97;100070.25;1763621;81;21061;-71
2022/06/11 05:21:46;;;;;;;15.32;7.58;;;;;;;28.45;33.14;100065.42;1763643;81;21190;-72
2022/06/11 05:24:14;;;;;;;15.23;7.92;;;;;;;28.65;32.52;100068.09;1763350;80;21053;-72
2022/06/11 05:26:49;;;;;;;13.15;7.70;;;;;;;28.94;31.44;100078.81;1763434;81;21041;-71
2022/06/11 05:29:36;;;;;;;17.07;8.43;;;;;;;29.13;30.95;100071.29;1763469;81;21057;-72
2022/06/11 05:32:03;;;;;;;17.67;8.25;;;;;;;29.22;29.70;100081.90;1763751;81;21086;-72
2022/06/11 05:34:30;;;;;;;15.03;7.78;;;;;;;29.36;29.75;100076.22;1762693;81;21242;-72
2022/06/11 05:36:57;;;;;;;13.00;8.20;;;;;;;29.52;29.13;100078.45;1761227;81;21081;-73
2022/06/11 05:39:24;;;;;;;15.03;7.50;;;;;;;29.64;27.83;100082.45;1761077;80;21668;-72
2022/06/11 05:41:51;;;;;;;17.07;8.88;;;;;;;29.71;27.93;100083.44;1761128;80;21042;-73
2022/06/11 05:44:17;;;;;;;19.73;8.80;;;;;;;29.76;28.92;100086.44;1761211;81;21045;-71
2022/06/11 05:46:44;;;;;;;25.55;9.10;;;;;;;29.97;28.59;100074.05;1761441;81;21093;-72
2022/06/11 05:49:18;;;;;;;15.98;8.48;;;;;;;30.04;28.23;100077.70;1761134;81;21058;-71
2022/06/11 05:51:49;;;;;;;18.98;9.45;;;;;;;30.58;27.48;100068.52;1761643;81;21073;-71
2022/06/11 05:54:20;;;;;;;16.65;8.90;;;;;;;30.58;27.48;100068.52;1761427;81;21597;-72
2022/06/11 05:56:47;;;;;;;18.92;8.98;;;;;;;30.78;27.06;100068.75;1761529;81;21037;-72
2022/06/11 05:59:18;;;;;;;15.05;9.23;;;;;;;30.98;27.28;100069.03;1761310;81;21162;-72
2022/06/11 06:01:44;;;;;;;19.07;10.48;;;;;;;31.11;26.95;100067.83;1761668;81;21023;-72
2022/06/11 06:04:11;;;;;;;17.92;10.40;;;;;;;31.31;26.25;100069.38;1761301;81;21125;-73
2022/06/11 06:06:38;;;;;;;20.77;10.98;;;;;;;31.49;26.22;100067.09;1761367;81;21055;-72
2022/06/11 06:09:06;;;;;;;19.85;11.45;;;;;;;31.72;26.34;100071.48;1761185;81;21046;-73
2022/06/11 06:11:33;;;;;;;19.25;12.98;;;;;;;31.90;25.24;100070.48;1755263;81;21058;-72
2022/06/11 06:14:01;;;;;;;19.23;13.35;;;;;;;32.05;25.28;100066.84;1730966;82;21464;-71
2022/06/11 06:16:34;;;;;;;24.70;14.78;;;;;;;32.25;25.31;100070.55;1731021;82;21046;-72
2022/06/11 06:19:01;;;;;;;22.90;14.13;;;;;;;32.48;23.81;100071.63;1730022;82;21581;-71
2022/06/11 06:21:31;;;;;;;27.27;15.72;;;;;;;32.39;24.05;100079.66;1731208;82;21066;-73
2022/06/11 06:23:58;;;;;;;23.25;15.90;;;;;;;32.26;24.80;100073.61;1730970;82;21086;-71
2022/06/11 06:26:25;;;;;;;22.07;15.95;;;;;;;32.28;24.93;100075.63;1731015;82;21058;-73
2022/06/11 06:28:52;;;;;;;28.45;18.37;;;;;;;32.43;24.73;100070.56;1730983;82;21577;-72
2022/06/11 06:31:18;;;;;;;26.35;17.50;;;;;;;32.62;23.67;100063.03;1731287;82;21090;-72
2022/06/11 06:33:46;;;;;;;29.23;17.10;;;;;;;32.58;23.48;100063.98;1731091;82;21093;-71
2022/06/11 06:36:14;;;;;;;26.05;16.52;;;;;;;32.53;23.49;100073.78;1730773;82;21095;-74
2022/06/11 06:38:42;;;;;;;31.33;16.50;;;;;;;32.59;23.56;100070.27;1730842;82;21043;-73
2022/06/11 06:41:08;;;;;;;25.12;17.07;;;;;;;32.80;22.83;100067.41;1730983;82;21657;-72
2022/06/11 06:43:35;;;;;;;28.23;17.57;;;;;;;32.94;22.81;100064.74;1731104;82;21007;-73
2022/06/11 06:46:03;;;;;;;24.98;15.38;;;;;;;32.99;21.60;100064.96;1731032;82;21108;-72
2022/06/11 06:48:31;;;;;;;24.85;15.80;;;;;;;32.94;21.24;100067.47;1731051;82;22054;-71
2022/06/11 06:50:59;;;;;;;20.08;14.83;;;;;;;32.89;21.91;100072.70;1731117;82;21089;-73
2022/06/11 06:53:27;;;;;;;24.60;15.00;;;;;;;32.87;20.99;100069.33;1730970;82;21058;-72
2022/06/11 06:55:53;;;;;;;22.55;14.73;;;;;;;32.94;21.45;100075.66;1730936;82;21063;-72
2022/06/11 06:58:20;;;;;;;24.35;13.85;;;;;;;33.03;21.92;100068.97;1731355;82;21547;-71
2022/06/11 07:00:47;;;;;;;18.62;13.53;;;;;;;33.27;21.41;100080.39;1731074;82;21093;-73
2022/06/11 07:03:14;;;;;;;22.13;13.62;;;;;;;33.67;19.59;100069.58;1730933;82;21610;-71
2022/06/11 07:05:41;;;;;;;22.62;12.13;;;;;;;33.82;20.13;100065.59;1731164;82;21038;-72
2022/06/11 07:08:10;;;;;;;23.92;11.93;;;;;;;33.98;19.31;100067.05;1730894;82;21089;-70
2022/06/11 07:10:38;;;;;;;19.50;11.08;;;;;;;34.12;19.13;100073.38;1731356;82;21038;-73
2022/06/11 07:13:05;;;;;;;17.25;10.90;;;;;;;33.93;19.15;100069.55;1731001;82;21173;-73
2022/06/11 07:15:32;;;;;;;14.90;10.72;;;;;;;33.87;19.25;100072.29;1730789;82;21066;-73
2022/06/11 07:18:10;;;;;;;18.65;11.90;;;;;;;34.05;19.21;100067.89;1730982;82;21034;-72
2022/06/11 07:20:38;;;;;;;11.43;8.53;;;;;;;34.30;19.86;100067.22;1731114;82;21109;-72
2022/06/11 07:23:15;;;;;;;9.00;4.55;;;;;;;34.64;18.53;100070.74;1730960;81;21091;-71
2022/06/11 07:25:42;;;;;;;6.08;4.33;;;;;;;34.81;17.74;100063.74;1731077;82;21126;-73
2022/06/11 07:28:22;;;;;;;12.15;5.58;;;;;;;34.70;16.83;100076.72;1730941;82;21125;-71
2022/06/11 07:30:49;;;;;;;15.80;7.80;;;;;;;34.48;16.58;100070.12;1731199;82;21066;-72
2022/06/11 07:33:21;;;;;;;12.25;6.97;;;;;;;34.44;17.20;100067.52;1730895;82;21031;-73
2022/06/11 07:35:48;;;;;;;9.33;4.70;;;;;;;34.62;17.36;100066.02;1723490;82;21636;-73
2022/06/11 07:38:14;;;;;;;7.17;3.52;;;;;;;34.74;17.04;100067.03;1715155;83;21629;-71
2022/06/11 07:40:41;;;;;;;5.22;2.98;;;;;;;34.59;16.97;100066.42;1715214;83;21084;-71
2022/06/11 07:43:08;;;;;;;6.08;2.67;;;;;;;34.69;16.99;100068.19;1715205;83;21132;-73
2022/06/11 07:45:38;;;;;;;10.43;4.37;;;;;;;34.67;16.37;100071.16;1715170;83;21056;-72
2022/06/11 07:48:07;;;;;;;12.98;5.30;;;;;;;34.60;16.94;100065.35;1715187;83;21556;-72
2022/06/11 07:50:37;;;;;;;10.95;4.62;;;;;;;34.67;17.20;100067.56;1715466;83;21784;-72
2022/06/11 07:53:05;;;;;;;7.40;3.55;;;;;;;34.91;16.65;100070.64;1715059;83;21045;-72
2022/06/11 07:55:31;;;;;;;5.67;4.15;;;;;;;35.10;16.64;100072.42;1715457;83;21042;-72
2022/06/11 07:57:59;;;;;;;8.53;4.40;;;;;;;35.06;15.96;100065.20;1715222;83;21553;-72
2022/06/11 08:00:30;;;;;;;9.83;3.22;;;;;;;35.20;16.92;100065.13;1715095;83;21061;-72
2022/06/11 08:02:58;;;;;;;6.37;2.95;;;;;;;35.32;15.91;100059.78;1715224;83;21191;-74
2022/06/11 08:05:25;;;;;;;5.67;2.90;;;;;;;35.53;15.27;100060.81;1714959;83;21053;-73
2022/06/11 08:07:52;;;;;;;12.85;6.00;;;;;;;35.78;15.63;100060.86;1715207;83;21116;-72
2022/06/11 08:10:22;;;;;;;11.30;6.97;;;;;;;36.15;16.00;100060.13;1714989;83;21046;-73
2022/06/11 08:12:48;;;;;;;10.60;5.87;;;;;;;36.28;15.32;100061.34;1715561;83;21052;-72
2022/06/11 08:15:15;;;;;;;7.55;6.03;;;;;;;36.23;15.73;100059.82;1714713;83;21431;-72
2022/06/11 08:17:41;;;;;;;12.18;6.17;;;;;;;36.13;15.53;100065.83;1715138;83;21611;-72
2022/06/11 08:20:14;;;;;;;10.20;5.50;;;;;;;36.20;15.34;100063.02;1715150;83;21102;-72
2022/06/11 08:22:41;;;;;;;13.28;5.60;;;;;;;36.28;15.27;100059.46;1715108;83;21127;-73
2022/06/11 08:25:08;;;;;;;10.53;5.97;;;;;;;36.10;15.44;100060.27;1715138;83;21057;-72
2022/06/11 08:27:34;;;;;;;9.23;5.53;;;;;;;36.05;15.43;100058.72;1715502;83;21104;-72
2022/06/11 08:30:03;;;;;;;10.23;6.10;;;;;;;36.24;16.06;100058.77;1715241;83;21030;-72
2022/06/11 08:32:30;;;;;;;11.08;6.08;;;;;;;36.46;15.65;100055.86;1715244;83;21065;-72
2022/06/11 08:34:57;;;;;;;9.00;5.55;;;;;;;36.71;15.42;100059.92;1714942;83;21080;-72
2022/06/11 08:37:23;;;;;;;9.40;5.47;;;;;;;37.06;15.28;100057.04;1717561;82;21108;-72
2022/06/11 08:39:51;;;;;;;11.28;5.70;;;;;;;37.21;14.50;100066.27;1717695;83;21132;-73
2022/06/11 08:42:37;;;;;;;10.53;5.42;;;;;;;37.10;14.97;100059.66;1717641;83;21181;-72
2022/06/11 08:45:19;;;;;;;8.50;4.95;;;;;;;37.22;14.81;100060.52;1717531;83;21474;-73
2022/06/11 08:50:32;;;;;;;8.50;5.10;;;;;;;36.84;15.44;100046.58;1796396;79;22800;-71
2022/06/11 08:52:59;;;;;;;11.78;4.67;;;;;;;36.58;15.52;100057.84;1755287;81;20961;-72
2022/06/11 08:55:29;;;;;;;9.18;4.97;;;;;;;36.38;15.59;100054.81;1756547;81;22278;-72
2022/06/11 08:58:19;;;;;;;6.83;4.40;;;;;;;36.29;15.99;100047.95;1756486;81;21033;-73
2022/06/11 09:01:01;;;;;;;7.08;4.53;;;;;;;36.48;15.24;100044.13;1723296;83;21041;-73
2022/06/11 09:04:00;;;;;;;6.53;4.50;;;;;;;36.63;15.20;100038.81;1723195;83;21036;-74
2022/06/11 09:07:03;;;;;;;14.65;4.03;;;;;;;36.77;15.09;100042.25;1722963;83;21100;-73
2022/06/11 09:09:42;;;;;;;6.83;3.98;;;;;;;37.02;15.13;100037.98;1688551;83;21011;-73
2022/06/11 09:12:57;;;;;;;6.40;3.92;;;;;;;36.76;15.56;100037.28;1691982;83;21056;-71
2022/06/11 09:15:56;;;;;;;7.45;3.90;;;;;;;36.64;15.56;100038.59;1722875;83;20953;-73
2022/06/11 09:18:44;;;;;;;6.50;4.10;;;;;;;36.55;16.00;100033.92;1722735;83;21025;-71
2022/06/11 09:21:22;;;;;;;7.85;4.40;;;;;;;36.53;15.18;100036.05;1722852;83;21071;-72
2022/06/11 09:24:14;;;;;;;6.62;3.95;;;;;;;36.48;15.53;100033.16;1721385;83;21962;-74
2022/06/11 09:26:59;;;;;;;8.50;4.60;;;;;;;36.16;15.65;100036.59;1722618;83;21048;-73
2022/06/11 09:29:43;;;;;;;6.80;4.00;;;;;;;36.15;16.06;100040.95;1691549;83;21072;-72
2022/06/11 09:32:17;;;;;;;7.35;4.20;;;;;;;36.37;15.45;100031.72;1722888;83;21092;-71
2022/06/11 09:34:51;;;;;;;6.70;4.40;;;;;;;36.46;15.25;100037.20;1720116;83;22129;-71
2022/06/11 09:37:51;;;;;;;6.90;4.25;;;;;;;36.16;15.74;100034.38;1723022;83;21232;-72
2022/06/11 09:40:33;;;;;;;8.33;5.10;;;;;;;36.07;15.59;100029.16;1721781;83;21062;-72
2022/06/11 09:43:38;;;;;;;8.70;5.12;;;;;;;36.42;15.58;100034.10;1696485;84;21062;-71
2022/06/11 09:46:25;;;;;;;7.47;4.03;;;;;;;36.91;15.51;100021.25;1696535;84;21112;-72
2022/06/11 09:49:26;;;;;;;6.28;4.60;;;;;;;37.41;14.67;100020.64;1692025;84;21121;-72
2022/06/11 09:52:13;;;;;;;7.15;4.60;;;;;;;37.28;14.80;100024.45;1655547;85;21185;-71
2022/06/11 09:55:10;;;;;;;7.35;4.72;;;;;;;36.79;14.82;100020.37;1699449;84;21050;-72
2022/06/11 09:57:45;;;;;;;10.70;4.30;;;;;;;36.41;15.48;100024.18;1695180;84;21130;-73
2022/06/11 10:00:38;;;;;;;7.72;4.55;;;;;;;36.18;15.31;100018.55;1694526;84;21073;-73
2022/06/11 10:03:36;;;;;;;6.97;4.28;;;;;;;35.85;15.06;100019.70;1694373;84;21171;-72
2022/06/11 10:06:12;;;;;;;7.83;4.70;;;;;;;35.65;15.21;100017.97;1693886;84;21058;-71
2022/06/11 10:09:00;;;;;;;8.45;4.53;;;;;;;35.83;15.79;100015.81;1694099;84;21085;-72
2022/06/11 10:11:51;;;;;;;13.43;4.15;;;;;;;36.18;15.20;100014.44;1694168;84;21125;-72
2022/06/11 10:14:28;;;;;;;7.67;4.03;;;;;;;36.39;14.80;100005.74;1694558;84;21074;-71
2022/06/11 10:17:21;;;;;;;8.73;4.20;;;;;;;36.62;14.79;100008.35;1694175;84;21152;-73
2022/06/11 10:20:20;;;;;;;8.93;4.25;;;;;;;36.77;14.41;100006.05;1694175;84;21045;-72
2022/06/11 10:22:53;;;;;;;8.40;4.50;;;;;;;36.48;14.81;100011.22;1694149;84;21089;-73
2022/06/11 10:25:58;;;;;;;9.33;4.62;;;;;;;35.94;15.34;100015.61;1694669;84;21085;-72
2022/06/11 10:28:47;;;;;;;7.78;4.15;;;;;;;35.70;14.95;100007.17;1694292;84;21549;-71
2022/06/11 10:31:28;;;;;;;10.70;4.37;;;;;;;35.58;14.80;100003.47;1694646;83;21087;-72
2022/06/11 10:34:05;;;;;;;10.28;4.58;;;;;;;35.79;15.07;100002.79;1694541;84;21187;-73
2022/06/11 10:36:41;;;;;;;6.00;4.35;;;;;;;36.04;15.15;100000.02;1694148;84;21092;-73
2022/06/11 10:39:33;;;;;;;7.70;4.42;;;;;;;36.31;14.68;99994.56;1694388;84;21604;-72
2022/06/11 10:42:21;;;;;;;6.70;3.90;;;;;;;36.54;15.21;99995.23;1693941;84;21081;-73
2022/06/11 10:44:51;;;;;;;8.80;4.08;;;;;;;36.89;14.72;99989.09;1693289;84;21055;-72
2022/06/11 10:47:23;;;;;;;12.18;4.28;;;;;;;37.41;14.10;99983.56;1693454;84;21224;-74
2022/06/11 10:50:07;;;;;;;6.72;4.37;;;;;;;37.67;14.18;99982.31;1694044;83;21144;-73
2022/06/11 10:52:57;;;;;;;8.95;4.17;;;;;;;37.75;13.87;99981.40;1694154;84;21061;-72
2022/06/11 10:55:41;;;;;;;6.22;3.80;;;;;;;37.65;14.00;99972.93;1694473;84;21113;-72
2022/06/11 10:58:31;;;;;;;5.47;4.15;;;;;;;37.23;14.66;99972.98;1664408;84;21104;-73
2022/06/11 11:01:14;;;;;;;5.62;3.98;;;;;;;37.14;13.87;99980.72;1694198;84;21042;-73
2022/06/11 11:03:59;;;;;;;7.55;4.17;;;;;;;36.75;14.33;99975.26;1694141;84;21526;-72
2022/06/11 11:06:34;;;;;;;7.83;4.20;;;;;;;36.47;14.65;99971.17;1694389;84;21628;-72
2022/06/11 11:09:14;;;;;;;14.23;4.30;;;;;;;36.31;14.95;99980.03;1694120;84;21065;-73
2022/06/11 11:11:55;;;;;;;10.00;4.87;;;;;;;36.19;14.99;99974.98;1686610;84;21085;-73
2022/06/11 11:14:42;;;;;;;7.35;3.72;;;;;;;36.13;15.05;99970.73;1638974;86;21534;-73
2022/06/11 11:17:20;;;;;;;8.83;4.33;;;;;;;36.17;14.77;99970.26;1665936;85;21088;-72
2022/06/11 11:22:39;;;;;;;7.75;3.80;;;;;;;35.83;14.54;99967.03;1666227;86;21089;-72
2022/06/11 11:25:15;;;;;;;10.88;4.67;;;;;;;35.74;14.76;99956.06;1666229;86;21154;-72
2022/06/11 11:27:45;;;;;;;9.15;4.00;;;;;;;36.02;14.98;99971.45;1666477;86;21128;-72
2022/06/11 11:30:19;;;;;;;7.60;4.33;;;;;;;36.04;14.52;99970.70;1637883;86;21355;-72
2022/06/11 11:32:47;;;;;;;10.35;4.28;;;;;;;35.89;14.75;99968.34;1666188;86;21423;-73
2022/06/11 11:35:27;;;;;;;9.68;3.70;;;;;;;35.98;14.57;99966.11;1665932;86;21132;-72
2022/06/11 11:38:04;;;;;;;8.03;4.53;;;;;;;35.93;14.22;99961.31;1666323;86;22127;-71
2022/06/11 11:40:35;;;;;;;9.68;4.20;;;;;;;35.67;14.38;99950.11;1637769;86;21320;-72
2022/06/11 11:43:11;;;;;;;5.75;4.15;;;;;;;35.56;14.40;99948.08;1666190;86;21093;-72
2022/06/11 11:45:57;;;;;;;11.33;4.42;;;;;;;35.67;14.23;99949.28;1666145;85;21082;-72
2022/06/11 11:48:53;;;;;;;9.00;4.20;;;;;;;35.56;14.56;99948.08;1666110;86;21044;-70
2022/06/11 11:51:40;;;;;;;6.53;4.37;;;;;;;35.65;15.25;99944.02;1666091;85;21093;-72
2022/06/11 11:54:23;;;;;;;8.33;4.28;;;;;;;35.98;15.27;99945.56;1666226;86;21317;-71
2022/06/11 11:56:55;;;;;;;6.08;4.03;;;;;;;36.29;15.16;99935.01;1666208;85;21100;-72